createdAt,value
2022-08-17T00:00:43.402Z,22.20
2022-08-17T00:03:13.693Z,22.20
2022-08-17T00:05:47.443Z,22.50
2022-08-17T00:08:20.733Z,22.20
2022-08-17T00:10:50.409Z,22.20
2022-08-17T00:13:24.608Z,22.50
2022-08-17T00:15:53.627Z,22.50
2022-08-17T00:19:01.010Z,22.30
2022-08-17T00:21:13.247Z,22.30
2022-08-17T00:23:47.814Z,22.60
2022-08-17T00:26:43.999Z,22.30
2022-08-17T00:29:10.065Z,22.70
2022-08-17T00:31:47.574Z,22.40
2022-08-17T00:34:17.495Z,22.40
2022-08-17T00:36:45.573Z,22.40
2022-08-17T00:39:13.620Z,22.40
2022-08-17T00:41:42.381Z,22.60
2022-08-17T00:44:12.047Z,22.40
2022-08-17T00:46:43.534Z,22.70
2022-08-17T00:49:14.205Z,22.50
2022-08-17T00:51:49.441Z,22.40
2022-08-17T00:54:23.577Z,23.00
2022-08-17T00:56:55.475Z,22.40
2022-08-17T00:59:30.934Z,22.30
2022-08-17T01:02:00.120Z,22.40
2022-08-17T01:04:30.744Z,22.30
2022-08-17T01:07:02.642Z,22.40
2022-08-17T01:09:31.978Z,22.30
2022-08-17T01:12:00.187Z,22.10
2022-08-17T01:14:28.364Z,22.50
2022-08-17T01:16:57.387Z,22.20
2022-08-17T01:19:29.635Z,22.50
2022-08-17T01:22:06.937Z,22.50
2022-08-17T01:24:38.617Z,22.30
2022-08-17T01:27:10.354Z,22.20
2022-08-17T01:29:40.699Z,22.30
2022-08-17T01:32:09.644Z,22.10
2022-08-17T01:34:42.576Z,22.00
2022-08-17T01:37:13.533Z,22.70
2022-08-17T01:39:48.967Z,22.00
2022-08-17T01:42:24.472Z,21.90
2022-08-17T01:44:57.840Z,22.00
2022-08-17T01:47:25.984Z,22.20
2022-08-17T01:49:54.441Z,22.10
2022-08-17T01:52:23.727Z,22.10
2022-08-17T01:54:54.323Z,22.00
2022-08-17T01:57:22.403Z,22.20
2022-08-17T01:59:50.453Z,22.10
2022-08-17T02:02:30.343Z,22.10
2022-08-17T02:05:01.341Z,22.00
2022-08-17T02:07:29.615Z,22.10
2022-08-17T02:09:59.578Z,22.00
2022-08-17T02:12:48.714Z,22.00
2022-08-17T02:15:15.832Z,22.10
2022-08-17T02:17:45.665Z,22.00
2022-08-17T02:20:14.130Z,22.20
2022-08-17T02:22:45.913Z,21.80
2022-08-17T02:25:20.562Z,22.10
2022-08-17T02:27:48.628Z,22.10
2022-08-17T02:30:59.579Z,22.10
2022-08-17T02:33:06.449Z,22.10
2022-08-17T02:35:37.597Z,22.00
2022-08-17T02:38:06.481Z,22.10
2022-08-17T02:40:36.783Z,22.10
2022-08-17T02:43:05.639Z,22.20
2022-08-17T02:45:33.893Z,22.20
2022-08-17T02:48:02.241Z,22.10
2022-08-17T02:50:30.369Z,22.10
2022-08-17T02:53:01.778Z,22.10
2022-08-17T02:55:35.493Z,22.10
2022-08-17T02:58:03.842Z,22.10
2022-08-17T03:00:36.250Z,22.00
2022-08-17T03:03:06.842Z,22.00
2022-08-17T03:05:38.019Z,22.30
2022-08-17T03:08:12.943Z,22.00
2022-08-17T03:10:44.409Z,22.10
2022-08-17T03:13:14.384Z,22.10
2022-08-17T03:15:45.671Z,22.10
2022-08-17T03:18:19.297Z,22.20
2022-08-17T03:20:54.935Z,22.20
2022-08-17T03:23:24.079Z,22.00
2022-08-17T03:25:55.143Z,22.10
2022-08-17T03:28:24.637Z,22.10
2022-08-17T03:30:53.253Z,22.20
2022-08-17T03:33:21.989Z,22.20
2022-08-17T03:35:50.129Z,22.10
2022-08-17T03:38:18.888Z,22.00
2022-08-17T03:40:56.569Z,22.20
2022-08-17T03:43:32.061Z,22.80
2022-08-17T03:46:27.624Z,22.40
2022-08-17T03:49:15.256Z,22.40
2022-08-17T03:52:01.193Z,22.50
2022-08-17T03:54:47.138Z,22.60
2022-08-17T03:57:16.228Z,22.60
2022-08-17T03:59:45.884Z,22.70
2022-08-17T04:02:19.555Z,22.80
2022-08-17T04:04:50.567Z,22.90
2022-08-17T04:07:18.958Z,22.90
2022-08-17T04:09:47.070Z,22.70
2022-08-17T04:12:16.418Z,22.90
2022-08-17T04:14:53.169Z,22.90
2022-08-17T04:17:24.489Z,23.10
2022-08-17T04:19:53.372Z,23.00
2022-08-17T04:22:30.152Z,23.10
2022-08-17T04:25:00.382Z,22.90
2022-08-17T04:27:28.464Z,23.10
2022-08-17T04:29:58.414Z,23.10
2022-08-17T04:33:03.939Z,23.20
2022-08-17T04:35:20.981Z,23.30
2022-08-17T04:37:49.129Z,23.40
2022-08-17T04:40:36.531Z,23.40
2022-08-17T04:43:08.590Z,23.50
2022-08-17T04:45:51.276Z,23.50
2022-08-17T04:48:29.589Z,23.70
2022-08-17T04:51:09.403Z,23.10
2022-08-17T04:53:38.211Z,22.50
2022-08-17T04:56:06.815Z,22.30
2022-08-17T04:58:35.044Z,22.10
2022-08-17T05:01:05.769Z,21.40
2022-08-17T05:03:34.021Z,21.40
2022-08-17T05:06:02.175Z,21.30
2022-08-17T05:08:30.445Z,21.30
2022-08-17T05:10:58.589Z,20.60
2022-08-17T05:13:29.556Z,21.30
2022-08-17T05:16:01.705Z,21.40
2022-08-17T05:18:31.600Z,21.40
2022-08-17T05:21:00.685Z,21.30
2022-08-17T05:23:36.537Z,21.40
2022-08-17T05:26:25.613Z,21.10
2022-08-17T05:28:57.123Z,21.00
2022-08-17T05:31:28.471Z,20.60
2022-08-17T05:33:58.338Z,20.20
2022-08-17T05:36:43.385Z,20.50
2022-08-17T05:39:16.877Z,20.30
2022-08-17T05:41:48.620Z,21.20
2022-08-17T05:44:17.541Z,20.40
2022-08-17T05:46:51.206Z,20.30
2022-08-17T05:49:27.017Z,20.00
2022-08-17T05:52:14.746Z,20.10
2022-08-17T05:55:04.717Z,20.10
2022-08-17T05:58:01.190Z,19.80
2022-08-17T06:00:41.804Z,19.90
2022-08-17T06:03:28.543Z,19.90
2022-08-17T06:06:13.168Z,19.80
2022-08-17T06:08:51.535Z,20.80
2022-08-17T06:11:30.516Z,20.80
2022-08-17T06:14:27.612Z,20.90
2022-08-17T06:17:01.688Z,21.00
2022-08-17T06:19:39.177Z,21.50
2022-08-17T06:22:12.002Z,21.80
2022-08-17T06:24:45.026Z,22.00
2022-08-17T06:27:20.594Z,21.90
2022-08-17T06:29:58.296Z,22.30
2022-08-17T06:32:26.682Z,22.80
2022-08-17T06:34:55.239Z,22.70
2022-08-17T06:37:39.494Z,22.30
2022-08-17T06:40:39.872Z,21.90
2022-08-17T06:43:27.873Z,21.60
2022-08-17T06:46:04.465Z,21.60
2022-08-17T06:48:41.869Z,21.60
2022-08-17T06:51:20.270Z,22.30
2022-08-17T06:53:59.301Z,22.50
2022-08-17T06:56:53.927Z,22.60
2022-08-17T06:59:36.342Z,22.40
2022-08-17T07:02:51.960Z,22.60
2022-08-17T07:05:26.845Z,22.20
2022-08-17T07:08:04.725Z,22.00
2022-08-17T07:10:40.651Z,21.70
2022-08-17T07:13:29.514Z,21.80
2022-08-17T07:16:13.123Z,22.20
2022-08-17T07:18:41.902Z,22.60
2022-08-17T07:21:25.814Z,22.60
2022-08-17T07:24:29.621Z,22.60
2022-08-17T07:27:12.475Z,22.20
2022-08-17T07:29:45.616Z,22.10
2022-08-17T07:32:18.461Z,22.00
2022-08-17T07:35:16.185Z,22.10
2022-08-17T07:37:50.808Z,22.30
2022-08-17T07:40:31.877Z,22.40
2022-08-17T07:43:24.753Z,22.20
2022-08-17T07:46:35.300Z,22.30
2022-08-17T07:49:35.461Z,22.10
2022-08-17T07:52:47.401Z,22.20
2022-08-17T07:54:57.652Z,22.50
2022-08-17T07:57:36.570Z,22.80
2022-08-17T08:00:29.160Z,23.10
2022-08-17T08:03:18.532Z,23.00
2022-08-17T08:05:55.874Z,22.90
2022-08-17T08:08:30.381Z,23.10
2022-08-17T08:11:09.984Z,23.40
2022-08-17T08:13:42.617Z,23.30
2022-08-17T08:16:26.317Z,23.70
2022-08-17T08:18:58.266Z,23.70
2022-08-17T08:21:37.863Z,23.90
2022-08-17T08:24:30.810Z,24.20
2022-08-17T08:27:15.875Z,24.20
2022-08-17T08:29:53.986Z,24.10
2022-08-17T08:32:37.771Z,24.20
2022-08-17T08:35:10.509Z,24.10
2022-08-17T08:37:55.879Z,24.30
2022-08-17T08:40:41.267Z,24.50
2022-08-17T08:43:24.363Z,24.70
2022-08-17T08:45:59.777Z,24.60
2022-08-17T08:48:58.650Z,25.00
2022-08-17T08:51:39.125Z,25.00
2022-08-17T08:54:26.627Z,25.80
2022-08-17T09:00:15.594Z,25.20
2022-08-17T09:03:20.337Z,24.90
2022-08-17T09:06:33.516Z,24.60
2022-08-17T09:09:11.621Z,24.30
2022-08-17T09:12:02.829Z,23.90
2022-08-17T09:14:46.459Z,23.50
2022-08-17T09:17:20.561Z,23.40
2022-08-17T09:19:54.676Z,23.00
2022-08-17T09:22:34.543Z,23.10
2022-08-17T09:25:10.354Z,23.10
2022-08-17T09:27:56.881Z,23.00
2022-08-17T09:30:36.970Z,23.10
2022-08-17T09:33:10.346Z,23.30
2022-08-17T09:35:45.459Z,23.30
2022-08-17T09:38:29.203Z,23.20
2022-08-17T09:41:10.817Z,23.30
2022-08-17T09:43:46.101Z,23.30
2022-08-17T09:46:20.893Z,23.20
2022-08-17T09:48:57.341Z,23.30
2022-08-17T09:51:33.694Z,23.20
2022-08-17T09:54:37.153Z,23.30
2022-08-17T09:57:28.048Z,23.20
2022-08-17T10:00:13.541Z,23.10
2022-08-17T10:03:17.065Z,23.20
2022-08-17T10:05:51.238Z,23.00
2022-08-17T10:08:38.045Z,23.00
2022-08-17T10:11:50.455Z,23.00
2022-08-17T10:14:36.263Z,23.00
2022-08-17T10:17:16.634Z,23.10
2022-08-17T10:19:55.012Z,23.10
2022-08-17T10:22:53.112Z,23.10
2022-08-17T10:25:56.752Z,22.90
2022-08-17T10:28:40.258Z,23.10
2022-08-17T10:34:41.585Z,23.10
2022-08-17T10:37:33.576Z,22.90
2022-08-17T10:40:20.531Z,23.10
2022-08-17T10:42:53.001Z,23.30
2022-08-17T10:45:33.193Z,23.30
2022-08-17T10:48:21.775Z,23.20
2022-08-17T10:51:02.485Z,23.00
2022-08-17T10:53:57.594Z,23.00
2022-08-17T10:56:43.902Z,23.20
2022-08-17T10:59:51.399Z,23.30
2022-08-17T11:02:27.933Z,23.10
2022-08-17T11:05:15.611Z,23.40
2022-08-17T11:08:08.569Z,23.40
2022-08-17T11:11:01.080Z,23.70
2022-08-17T11:13:41.856Z,23.80
2022-08-17T11:16:38.116Z,23.50
2022-08-17T11:19:40.576Z,23.60
2022-08-17T11:22:37.422Z,23.70
2022-08-17T11:25:17.750Z,23.50
2022-08-17T11:27:54.164Z,23.60
2022-08-17T11:30:46.960Z,23.60
2022-08-17T11:33:56.392Z,23.70
2022-08-17T11:37:04.787Z,23.70
2022-08-17T11:40:06.446Z,23.40
2022-08-17T11:43:04.782Z,23.60
2022-08-17T11:45:55.080Z,23.60
2022-08-17T11:48:53.878Z,23.70
2022-08-17T11:51:41.501Z,23.50
2022-08-17T11:54:40.600Z,23.50
2022-08-17T11:58:01.404Z,23.70
2022-08-17T12:00:54.593Z,23.60
2022-08-17T12:03:55.636Z,23.50
2022-08-17T12:06:46.670Z,23.10
2022-08-17T12:09:24.425Z,23.10
2022-08-17T12:12:12.682Z,23.10
2022-08-17T12:17:40.691Z,23.50
2022-08-17T12:20:17.095Z,23.10
2022-08-17T12:22:56.358Z,22.20
2022-08-17T12:25:35.178Z,22.10
2022-08-17T12:28:06.352Z,21.40
2022-08-17T12:30:37.514Z,21.20
2022-08-17T12:33:24.953Z,21.10
2022-08-17T12:36:00.057Z,21.00
2022-08-17T12:38:33.005Z,20.90
2022-08-17T12:41:26.297Z,20.70
2022-08-17T12:44:01.874Z,20.50
2022-08-17T12:46:34.711Z,20.40
2022-08-17T12:49:22.829Z,20.80
2022-08-17T12:52:03.184Z,20.50
2022-08-17T12:54:51.076Z,20.70
2022-08-17T12:57:25.635Z,20.50
2022-08-17T12:59:59.327Z,20.50
2022-08-17T13:02:33.045Z,20.40
2022-08-17T13:05:03.005Z,20.30
2022-08-17T13:07:36.360Z,19.90
2022-08-17T13:10:05.669Z,19.70
2022-08-17T13:12:36.916Z,19.60
2022-08-17T13:15:06.558Z,19.30
2022-08-17T13:17:37.721Z,19.40
2022-08-17T13:20:15.580Z,19.30
2022-08-17T13:22:44.419Z,19.30
2022-08-17T13:25:17.887Z,19.10
2022-08-17T13:27:50.541Z,19.20
2022-08-17T13:30:27.923Z,19.70
2022-08-17T13:32:57.921Z,19.80
2022-08-17T13:35:39.967Z,19.90
2022-08-17T13:38:12.919Z,19.90
2022-08-17T13:40:50.192Z,19.80
2022-08-17T13:43:48.333Z,19.80
2022-08-17T13:46:23.810Z,19.90
2022-08-17T13:49:01.759Z,20.20
2022-08-17T13:51:36.749Z,20.50
2022-08-17T13:54:27.070Z,21.10
2022-08-17T13:57:02.085Z,21.10
2022-08-17T13:59:53.572Z,21.30
2022-08-17T14:02:27.916Z,21.70
2022-08-17T14:04:57.797Z,22.40
2022-08-17T14:07:36.650Z,22.30
2022-08-17T14:10:13.172Z,22.30
2022-08-17T14:12:43.952Z,22.50
2022-08-17T14:15:17.022Z,22.90
2022-08-17T14:17:45.170Z,22.50
2022-08-17T14:20:14.459Z,22.70
2022-08-17T14:22:48.172Z,22.80
2022-08-17T14:25:20.592Z,22.90
2022-08-17T14:27:52.745Z,23.20
2022-08-17T14:30:25.206Z,23.20
2022-08-17T14:32:55.241Z,23.20
2022-08-17T14:35:24.686Z,23.60
2022-08-17T14:37:54.116Z,23.70
2022-08-17T14:40:25.323Z,23.80
2022-08-17T14:42:55.852Z,23.80
2022-08-17T14:45:29.653Z,23.80
2022-08-17T14:48:04.190Z,23.60
2022-08-17T14:50:35.453Z,23.40
2022-08-17T14:53:05.045Z,23.40
2022-08-17T14:55:33.483Z,23.40
2022-08-17T14:58:01.599Z,23.60
2022-08-17T15:00:31.298Z,23.80
2022-08-17T15:03:01.690Z,23.90
2022-08-17T15:05:33.423Z,24.20
2022-08-17T15:08:02.803Z,24.00
2022-08-17T15:10:32.085Z,24.70
2022-08-17T15:13:00.805Z,24.60
2022-08-17T15:15:33.030Z,24.60
2022-08-17T15:18:02.429Z,24.60
2022-08-17T15:20:31.396Z,24.30
2022-08-17T15:22:59.893Z,24.40
2022-08-17T15:25:31.675Z,24.30
2022-08-17T15:28:00.479Z,24.20
2022-08-17T15:30:30.923Z,24.20
2022-08-17T15:33:01.778Z,24.20
2022-08-17T15:35:33.390Z,24.10
2022-08-17T15:38:11.232Z,24.00
2022-08-17T15:40:43.564Z,24.10
2022-08-17T15:43:15.410Z,23.90
2022-08-17T15:45:44.268Z,24.10
2022-08-17T15:48:16.381Z,24.10
2022-08-17T15:50:45.078Z,24.20
2022-08-17T15:53:14.262Z,24.00
2022-08-17T15:55:43.809Z,24.00
2022-08-17T15:58:13.202Z,23.80
2022-08-17T16:00:53.369Z,24.20
2022-08-17T16:03:58.469Z,23.60
2022-08-17T16:06:20.995Z,23.70
2022-08-17T16:08:48.999Z,23.60
2022-08-17T16:11:18.668Z,23.40
2022-08-17T16:13:54.972Z,23.40
2022-08-17T16:16:24.540Z,23.40
2022-08-17T16:18:54.648Z,23.20
2022-08-17T16:21:29.556Z,23.40
2022-08-17T16:24:02.358Z,23.60
2022-08-17T16:26:32.965Z,23.70
2022-08-17T16:29:07.470Z,24.20
2022-08-17T16:31:37.495Z,23.90
2022-08-17T16:34:17.482Z,23.90
2022-08-17T16:36:54.583Z,24.00
2022-08-17T16:39:26.851Z,23.80
2022-08-17T16:41:55.781Z,23.60
2022-08-17T16:44:24.151Z,23.40
2022-08-17T16:46:52.276Z,23.50
2022-08-17T16:49:27.577Z,23.30
2022-08-17T16:52:07.237Z,23.40
2022-08-17T16:54:38.381Z,23.20
2022-08-17T16:57:06.923Z,23.10
2022-08-17T16:59:42.196Z,23.30
2022-08-17T17:02:15.604Z,23.20
2022-08-17T17:04:55.534Z,23.30
2022-08-17T17:07:49.582Z,23.40
2022-08-17T17:10:21.644Z,23.30
2022-08-17T17:13:02.247Z,23.50
2022-08-17T17:15:48.198Z,23.60
2022-08-17T17:18:17.752Z,23.50
2022-08-17T17:20:53.781Z,23.60
2022-08-17T17:23:44.070Z,23.50
2022-08-17T17:26:31.643Z,23.60
2022-08-17T17:29:19.102Z,23.50
2022-08-17T17:31:57.148Z,23.50
2022-08-17T17:34:30.487Z,23.80
2022-08-17T17:37:07.876Z,23.70
2022-08-17T17:39:43.713Z,23.60
2022-08-17T17:42:20.327Z,23.40
2022-08-17T17:44:56.430Z,23.40
2022-08-17T17:47:24.778Z,23.30
2022-08-17T17:49:53.142Z,23.40
2022-08-17T17:52:36.056Z,23.40
2022-08-17T17:55:29.620Z,23.00
2022-08-17T17:58:13.561Z,23.80
2022-08-17T18:00:50.568Z,24.10
2022-08-17T18:03:34.651Z,24.10
2022-08-17T18:06:21.927Z,23.70
2022-08-17T18:09:06.325Z,23.60
2022-08-17T18:11:51.888Z,23.60
2022-08-17T18:14:38.371Z,23.80
2022-08-17T18:17:07.889Z,23.80
2022-08-17T18:19:39.873Z,23.90
2022-08-17T18:22:14.370Z,23.90
2022-08-17T18:24:47.725Z,24.20
2022-08-17T18:27:31.061Z,24.60
2022-08-17T18:30:02.524Z,24.90
2022-08-17T18:32:37.619Z,25.00
2022-08-17T18:35:30.766Z,25.20
2022-08-17T18:38:20.351Z,25.40
2022-08-17T18:41:04.916Z,25.40
2022-08-17T18:43:53.136Z,26.60
2022-08-17T18:46:30.336Z,26.10
2022-08-17T18:49:02.216Z,26.60
2022-08-17T18:51:41.007Z,26.60
2022-08-17T18:54:20.634Z,26.60
2022-08-17T18:56:58.733Z,26.40
2022-08-17T18:59:36.767Z,26.40
2022-08-17T19:02:43.327Z,26.40
2022-08-17T19:05:31.775Z,26.60
2022-08-17T19:08:25.753Z,26.40
2022-08-17T19:10:59.766Z,26.50
2022-08-17T19:13:35.785Z,26.50
2022-08-17T19:16:15.263Z,26.30
2022-08-17T19:18:49.039Z,26.50
2022-08-17T19:21:24.140Z,26.50
2022-08-17T19:24:00.191Z,26.60
2022-08-17T19:26:53.474Z,26.00
2022-08-17T19:29:34.161Z,25.60
2022-08-17T19:32:07.540Z,25.30
2022-08-17T19:34:38.897Z,25.40
2022-08-17T19:37:21.659Z,25.40
2022-08-17T19:40:04.966Z,25.00
2022-08-17T19:42:47.460Z,24.90
2022-08-17T19:45:39.642Z,24.80
2022-08-17T19:48:22.602Z,24.80
2022-08-17T19:50:59.012Z,24.80
2022-08-17T19:54:03.818Z,24.80
2022-08-17T19:56:38.851Z,24.80
2022-08-17T19:59:17.278Z,24.50
2022-08-17T20:01:58.170Z,24.50
2022-08-17T20:04:37.543Z,24.70
2022-08-17T20:07:14.497Z,24.70
2022-08-17T20:09:49.292Z,24.60
2022-08-17T20:12:21.074Z,24.40
2022-08-17T20:14:56.040Z,24.70
2022-08-17T20:17:31.501Z,24.60
2022-08-17T20:20:19.849Z,24.70
2022-08-17T20:22:55.912Z,24.80
2022-08-17T20:25:33.678Z,24.80
2022-08-17T20:28:07.662Z,24.60
2022-08-17T20:30:40.104Z,24.60
2022-08-17T20:33:25.356Z,25.30
2022-08-17T20:36:18.020Z,26.60
2022-08-17T20:38:50.470Z,26.20
2022-08-17T20:41:22.471Z,26.10
2022-08-17T20:44:04.787Z,26.70
2022-08-17T20:46:58.108Z,27.30
2022-08-17T20:49:41.274Z,27.70
2022-08-17T20:52:13.362Z,28.00
2022-08-17T20:54:50.120Z,28.10
2022-08-17T20:57:48.786Z,28.20
2022-08-17T21:00:46.989Z,28.60
2022-08-17T21:03:50.402Z,28.70
2022-08-17T21:06:26.095Z,29.00
2022-08-17T21:09:29.561Z,29.50
2022-08-17T21:12:03.862Z,29.40
2022-08-17T21:14:58.183Z,29.70
2022-08-17T21:17:50.145Z,29.60
2022-08-17T21:20:32.466Z,30.00
2022-08-17T21:23:30.971Z,30.00
2022-08-17T21:26:26.720Z,29.90
2022-08-17T21:29:30.387Z,30.10
2022-08-17T21:32:25.347Z,30.50
2022-08-17T21:35:26.628Z,31.00
2022-08-17T21:38:02.266Z,31.30
2022-08-17T21:40:34.331Z,31.60
2022-08-17T21:43:23.262Z,32.00
2022-08-17T21:46:01.884Z,32.10
2022-08-17T21:48:33.685Z,32.60
2022-08-17T21:51:12.289Z,33.00
2022-08-17T21:53:46.248Z,32.70
2022-08-17T21:56:33.200Z,31.90
2022-08-17T21:59:05.780Z,31.20
2022-08-17T22:01:37.382Z,29.80
2022-08-17T22:04:26.421Z,29.40
2022-08-17T22:06:57.214Z,29.00
2022-08-17T22:09:29.071Z,28.70
2022-08-17T22:12:06.944Z,28.50
2022-08-17T22:14:52.576Z,28.10
2022-08-17T22:17:25.249Z,28.20
2022-08-17T22:19:57.782Z,28.00
2022-08-17T22:22:56.312Z,27.90
2022-08-17T22:25:25.935Z,27.70
2022-08-17T22:27:59.992Z,27.40
2022-08-17T22:30:36.808Z,27.50
2022-08-17T22:33:31.242Z,27.30
2022-08-17T22:36:15.424Z,27.40
2022-08-17T22:38:44.089Z,27.40
2022-08-17T22:41:31.861Z,26.90
2022-08-17T22:44:09.180Z,27.20
2022-08-17T22:46:41.525Z,27.20
2022-08-17T22:49:09.701Z,27.00
2022-08-17T22:51:43.256Z,26.90
2022-08-17T22:54:36.477Z,27.00
2022-08-17T22:57:23.693Z,27.00
2022-08-17T22:59:57.448Z,27.20
2022-08-17T23:02:28.867Z,27.30
2022-08-17T23:05:21.694Z,27.30
2022-08-17T23:07:53.366Z,27.80
2022-08-17T23:10:21.500Z,27.30
2022-08-17T23:12:49.517Z,27.40
2022-08-17T23:15:20.512Z,27.40
2022-08-17T23:17:48.681Z,27.40
2022-08-17T23:20:17.562Z,27.50
2022-08-17T23:22:52.545Z,27.30
2022-08-17T23:25:26.941Z,27.40
2022-08-17T23:27:55.440Z,27.40
2022-08-17T23:30:25.426Z,27.70
2022-08-17T23:32:54.262Z,27.70
2022-08-17T23:35:40.136Z,27.80
2022-08-17T23:38:12.177Z,27.90
2022-08-17T23:40:41.361Z,27.80
2022-08-17T23:43:25.520Z,27.70
2022-08-17T23:46:00.456Z,27.90
2022-08-17T23:48:36.816Z,27.80
2022-08-17T23:51:10.796Z,28.00
2022-08-17T23:53:43.999Z,27.80
2022-08-17T23:56:12.116Z,28.00
2022-08-17T23:58:42.879Z,27.80
